Austin, Texas
Traffic Map
Current Weather Conditions
Austin, Texas
Clear
Clear
56°
Feels Like: 56°
Wind Chill: 56° Ceiling: Unl
Heat Index: 56° Visibility: 10mi
Dew Point: 56° Wind: 0mph
Humidity: 100% Direction: ° ()
Pressure: 29.69in Gusts: 0mph
Raw Report DataKATT 230951Z AUTO 00000KT 10SM CLR 13/13 A2969 RMK AO2 SLP050 T01330133
Traffic Incident Summary
Active as of:
Severity:
Category:
InformationThere was an issue retrieving the traffic information for this location. Please try a different location or try again shortly.
Advertisements
Track Severe Weather on mobile